Time;durP1;ratioP1;P1;durP2;ratioP2;P2;SDS_P1;SDS_P2;PMS_P1;PMS_P2;Temp;Humidity;BMP_temperature;BMP_pressure;BME280_temperature;BME280_humidity;BME280_pressure;Samples;Min_cycle;Max_cycle;Signal;HPM_P1;HPM_P2
2021/05/30 00:00:33;;;;;;;11.77;7.82;;;;;;;7.84;83.09;102168.19;5021688;28;20372;-87
2021/05/30 00:03:00;;;;;;;11.63;7.93;;;;;;;7.83;83.08;102168.16;5052361;28;20127;-86
2021/05/30 00:05:26;;;;;;;12.60;9.63;;;;;;;7.83;83.03;102165.56;5021626;28;20048;-85
2021/05/30 00:07:56;;;;;;;14.30;8.32;;;;;;;7.84;83.32;102167.34;5035050;28;20055;-86
2021/05/30 00:10:23;;;;;;;10.93;8.25;;;;;;;7.81;83.29;102169.84;5015718;28;20057;-85
2021/05/30 00:12:50;;;;;;;12.10;8.90;;;;;;;7.80;83.28;102179.41;5025160;28;20049;-86
2021/05/30 00:15:22;;;;;;;12.27;8.15;;;;;;;7.80;83.72;102175.91;5036867;28;20063;-86
2021/05/30 00:17:50;;;;;;;13.90;9.30;;;;;;;7.79;84.07;102172.41;5038192;28;20399;-86
2021/05/30 00:20:17;;;;;;;12.02;8.95;;;;;;;7.78;83.75;102170.63;5037661;28;20135;-86
2021/05/30 00:22:43;;;;;;;13.65;9.45;;;;;;;7.76;83.78;102169.72;5053101;28;20494;-85
2021/05/30 00:25:12;;;;;;;12.77;9.02;;;;;;;7.74;83.87;102166.19;5021453;28;20603;-86
2021/05/30 00:27:40;;;;;;;10.32;8.02;;;;;;;7.72;83.92;102171.38;5049348;28;20603;-86
2021/05/30 00:30:08;;;;;;;12.23;8.30;;;;;;;7.69;84.03;102162.56;5051256;28;20048;-85
2021/05/30 00:32:34;;;;;;;12.40;9.15;;;;;;;7.68;84.09;102163.41;5052477;28;20044;-86
2021/05/30 00:35:04;;;;;;;12.27;8.73;;;;;;;7.66;84.08;102159.88;5035263;28;20133;-85
2021/05/30 00:37:30;;;;;;;12.50;8.98;;;;;;;7.64;84.14;102162.47;5056629;28;20071;-87
2021/05/30 00:39:56;;;;;;;11.88;9.05;;;;;;;7.61;84.14;102163.25;5029847;28;20056;-86
2021/05/30 00:42:22;;;;;;;9.20;8.00;;;;;;;7.59;84.39;102167.53;5036518;28;20110;-86
2021/05/30 00:44:50;;;;;;;15.80;9.10;;;;;;;7.54;84.70;102161.31;5043148;28;20558;-86
2021/05/30 00:47:17;;;;;;;15.50;9.18;;;;;;;7.51;84.76;102161.22;5077095;28;20094;-86
2021/05/30 00:49:43;;;;;;;14.57;9.35;;;;;;;7.49;84.49;102156.81;5058853;28;20064;-86
2021/05/30 00:52:09;;;;;;;17.00;11.32;;;;;;;7.44;84.63;102162.78;5043287;28;20708;-86
2021/05/30 00:54:37;;;;;;;14.57;10.05;;;;;;;7.37;84.97;102155.63;5077292;28;20834;-86
2021/05/30 00:57:09;;;;;;;14.80;10.23;;;;;;;7.33;85.23;102159.00;5060570;28;20056;-86
2021/05/30 00:59:35;;;;;;;19.80;10.13;;;;;;;7.28;85.17;102161.44;5070212;28;20044;-86
2021/05/30 01:02:03;;;;;;;13.77;9.80;;;;;;;7.25;85.19;102157.91;5050770;28;20049;-86
2021/05/30 01:04:31;;;;;;;14.88;10.82;;;;;;;7.22;85.58;102163.91;5056776;28;20048;-86
2021/05/30 01:06:57;;;;;;;15.00;10.43;;;;;;;7.16;85.43;102161.09;5046569;28;20499;-86
2021/05/30 01:09:25;;;;;;;14.35;10.05;;;;;;;7.12;85.35;102154.91;5052941;28;22237;-86
2021/05/30 01:11:53;;;;;;;17.63;10.43;;;;;;;7.10;85.74;102164.41;5060039;28;20571;-86
2021/05/30 01:14:20;;;;;;;13.80;9.05;;;;;;;7.06;85.85;102157.31;5042856;28;20061;-86
2021/05/30 01:16:50;;;;;;;12.02;9.13;;;;;;;7.03;85.87;102162.47;5023551;28;20332;-86
2021/05/30 01:19:18;;;;;;;15.40;11.10;;;;;;;7.00;85.91;102162.38;5042727;28;20167;-86
2021/05/30 01:21:46;;;;;;;16.50;10.52;;;;;;;6.98;86.22;102160.56;5037427;28;20056;-85
2021/05/30 01:24:15;;;;;;;14.90;10.68;;;;;;;6.94;86.41;102159.56;5041565;28;20043;-86
2021/05/30 01:26:44;;;;;;;17.55;9.30;;;;;;;6.92;86.28;102158.63;5041917;28;20040;-86
2021/05/30 01:29:12;;;;;;;11.48;8.30;;;;;;;6.87;86.42;102158.50;5051752;28;20526;-86
2021/05/30 01:31:39;;;;;;;12.18;8.70;;;;;;;6.84;86.80;102158.41;5048637;28;20067;-86
2021/05/30 01:34:05;;;;;;;13.57;9.68;;;;;;;6.81;86.68;102153.13;5040501;28;20494;-86
2021/05/30 01:36:34;;;;;;;11.50;9.05;;;;;;;6.76;86.77;102154.69;5044118;28;20512;-86
2021/05/30 01:39:02;;;;;;;15.57;8.82;;;;;;;6.75;86.76;102152.91;5028670;28;20063;-86
2021/05/30 01:41:31;;;;;;;17.63;10.50;;;;;;;6.73;86.94;102160.69;5040944;28;20059;-86
2021/05/30 01:44:00;;;;;;;11.52;8.88;;;;;;;6.71;87.16;102162.34;5025715;28;20511;-86
2021/05/30 01:46:35;;;;;;;16.90;10.48;;;;;;;6.70;87.08;102162.28;5072356;28;20139;-86
2021/05/30 01:49:02;;;;;;;13.02;9.45;;;;;;;6.69;87.54;102158.81;5055237;28;20611;-86
2021/05/30 01:51:34;;;;;;;15.63;10.93;;;;;;;6.68;87.00;102156.19;5044356;28;20445;-85
2021/05/30 01:54:05;;;;;;;16.65;9.63;;;;;;;6.64;87.03;102168.19;5038973;28;20098;-86
2021/05/30 01:59:20;;;;;;;12.77;9.38;;;;;;;6.64;87.58;102169.94;5037977;28;20032;-86
2021/05/30 02:01:50;;;;;;;13.07;9.75;;;;;;;6.61;87.38;102169.00;5038114;28;20076;-86
2021/05/30 02:04:21;;;;;;;10.80;8.30;;;;;;;6.59;87.53;102162.84;5041523;28;20067;-86
2021/05/30 02:06:53;;;;;;;13.60;10.00;;;;;;;6.60;87.72;102168.94;5039498;28;20080;-86
2021/05/30 02:09:20;;;;;;;8.93;7.25;;;;;;;6.57;87.86;102172.34;5024588;28;20131;-86
2021/05/30 02:11:46;;;;;;;12.02;9.45;;;;;;;6.55;87.59;102175.72;5053266;28;20075;-86
2021/05/30 02:14:15;;;;;;;11.82;8.13;;;;;;;6.53;87.98;102169.56;5055165;28;20092;-86
2021/05/30 02:16:42;;;;;;;14.50;10.32;;;;;;;6.53;88.08;102174.78;5054029;28;20041;-86
2021/05/30 02:19:12;;;;;;;14.55;10.10;;;;;;;6.54;87.94;102179.16;5072750;28;20049;-85
2021/05/30 02:21:49;;;;;;;16.77;9.18;;;;;;;6.55;88.25;102171.38;5040925;28;23281;-86
2021/05/30 02:24:19;;;;;;;17.20;8.95;;;;;;;6.55;88.03;102181.78;5037953;28;20041;-86
2021/05/30 02:26:46;;;;;;;14.50;9.27;;;;;;;6.53;87.99;102177.38;5055051;28;20703;-86
2021/05/30 02:29:44;;;;;;;12.57;8.65;;;;;;;6.51;88.28;102173.84;5066420;28;20059;-86
2021/05/30 02:32:14;;;;;;;15.88;10.63;;;;;;;6.50;88.44;102182.50;5070068;28;20090;-86
2021/05/30 02:34:43;;;;;;;15.98;10.32;;;;;;;6.48;88.59;102173.75;5071987;28;20114;-85
2021/05/30 02:37:14;;;;;;;17.42;9.57;;;;;;;6.43;88.37;102171.88;5054515;28;20669;-85
2021/05/30 02:39:45;;;;;;;15.05;10.13;;;;;;;6.42;88.56;102169.22;5036895;28;20471;-87
2021/05/30 02:42:13;;;;;;;17.55;10.23;;;;;;;6.40;88.75;102171.78;5068550;28;20052;-86
2021/05/30 02:44:40;;;;;;;19.63;10.93;;;;;;;6.39;88.64;102179.56;5038451;28;20295;-85
2021/05/30 02:47:08;;;;;;;16.98;9.50;;;;;;;6.38;89.14;102169.97;5039551;28;20124;-86
2021/05/30 02:49:35;;;;;;;19.92;11.93;;;;;;;6.37;88.84;102181.19;5050150;28;20049;-86
2021/05/30 02:52:04;;;;;;;21.35;11.60;;;;;;;6.37;89.02;102179.47;5040869;28;20044;-86
2021/05/30 02:54:33;;;;;;;17.27;10.82;;;;;;;6.37;88.93;102181.19;5054765;28;20049;-86
2021/05/30 02:57:00;;;;;;;21.27;10.48;;;;;;;6.36;88.86;102185.53;5043617;28;20045;-86
2021/05/30 02:59:27;;;;;;;15.32;10.13;;;;;;;6.33;89.07;102181.94;5051404;28;20040;-85
2021/05/30 03:01:55;;;;;;;14.07;9.15;;;;;;;6.31;89.18;102179.28;5052735;28;20056;-86
2021/05/30 03:04:23;;;;;;;11.98;9.45;;;;;;;6.30;89.20;102180.13;5039275;28;20040;-86
2021/05/30 03:06:49;;;;;;;15.98;9.18;;;;;;;6.28;89.29;102185.28;5055284;28;20147;-85
2021/05/30 03:09:15;;;;;;;13.10;9.52;;;;;;;6.29;89.42;102186.16;5068625;28;20053;-85
2021/05/30 03:11:44;;;;;;;13.23;9.88;;;;;;;6.27;89.42;102191.31;5039758;28;20131;-85
2021/05/30 03:14:13;;;;;;;15.75;10.45;;;;;;;6.28;89.38;102184.38;5052553;28;20057;-85
2021/05/30 03:16:41;;;;;;;18.92;11.32;;;;;;;6.25;89.09;102177.34;5021052;28;20081;-85
2021/05/30 03:19:09;;;;;;;11.85;8.15;;;;;;;6.23;89.26;102181.63;5018998;28;20055;-85
2021/05/30 03:21:40;;;;;;;18.42;10.82;;;;;;;6.21;89.31;102183.28;5056251;28;20045;-85
2021/05/30 03:24:11;;;;;;;14.35;10.48;;;;;;;6.22;90.08;102184.16;5037473;28;20052;-85
2021/05/30 03:26:38;;;;;;;18.35;10.40;;;;;;;6.22;89.65;102187.66;5032585;28;20409;-85
2021/05/30 03:29:04;;;;;;;14.05;8.63;;;;;;;6.21;89.35;102185.88;5068994;28;20070;-87
2021/05/30 03:31:31;;;;;;;19.50;10.48;;;;;;;6.20;89.52;102183.25;5038117;28;20095;-87
2021/05/30 03:34:00;;;;;;;18.45;10.43;;;;;;;6.19;89.44;102191.88;5068774;28;20055;-86
2021/05/30 03:36:27;;;;;;;15.23;11.05;;;;;;;6.19;89.60;102186.66;5028747;28;20435;-85
2021/05/30 03:39:00;;;;;;;15.93;10.63;;;;;;;6.20;89.74;102193.66;5031184;28;20801;-85
2021/05/30 03:41:39;;;;;;;18.20;10.50;;;;;;;6.21;89.92;102191.09;5039694;28;20116;-85
2021/05/30 03:44:09;;;;;;;15.18;10.13;;;;;;;6.22;89.51;102192.88;5021427;28;20048;-86
2021/05/30 03:46:37;;;;;;;21.27;11.70;;;;;;;6.24;89.70;102190.31;5021330;28;20593;-86
2021/05/30 03:49:06;;;;;;;16.92;10.25;;;;;;;6.26;89.55;102191.25;5053396;28;20048;-86
2021/05/30 03:51:33;;;;;;;15.18;9.52;;;;;;;6.27;89.67;102187.81;5035236;28;20151;-86
2021/05/30 03:54:01;;;;;;;19.48;11.15;;;;;;;6.29;89.53;102184.41;5036147;28;20465;-86
2021/05/30 03:56:28;;;;;;;19.08;10.00;;;;;;;6.32;89.69;102190.56;5017853;28;20045;-86
2021/05/30 03:58:56;;;;;;;13.75;8.20;;;;;;;6.33;89.64;102190.63;5018700;28;20048;-85
2021/05/30 04:01:23;;;;;;;13.77;9.52;;;;;;;6.36;89.44;102195.94;5026355;28;20131;-86
2021/05/30 04:03:49;;;;;;;17.17;10.32;;;;;;;6.40;89.56;102196.91;5034543;28;20131;-85
2021/05/30 04:06:17;;;;;;;15.85;10.38;;;;;;;6.43;89.38;102197.03;5069512;28;20047;-86
2021/05/30 04:08:43;;;;;;;15.45;10.07;;;;;;;6.49;89.71;102193.72;5031617;28;20056;-85
2021/05/30 04:11:10;;;;;;;16.42;11.40;;;;;;;6.55;89.52;102187.00;5037202;28;20128;-86
2021/05/30 04:13:38;;;;;;;17.20;11.18;;;;;;;6.61;89.53;102191.53;5047613;28;20495;-86
2021/05/30 04:16:04;;;;;;;19.38;12.70;;;;;;;6.67;89.04;102196.91;5034609;28;20067;-86
2021/05/30 04:18:31;;;;;;;18.17;9.95;;;;;;;6.73;89.07;102202.31;5047612;28;20410;-86
2021/05/30 04:20:59;;;;;;;18.42;10.43;;;;;;;6.77;88.89;102198.97;5051049;28;20048;-86
2021/05/30 04:23:26;;;;;;;16.33;10.60;;;;;;;6.83;88.72;102206.13;5053731;28;20056;-86
2021/05/30 04:25:57;;;;;;;17.23;10.38;;;;;;;6.85;88.97;102199.22;5037820;28;20075;-86
2021/05/30 04:28:24;;;;;;;17.88;12.18;;;;;;;6.89;88.71;102202.81;5035193;28;20083;-86
2021/05/30 04:30:50;;;;;;;18.17;11.10;;;;;;;6.93;88.53;102202.94;5054315;28;20048;-86
2021/05/30 04:33:20;;;;;;;18.42;11.43;;;;;;;6.98;88.39;102203.09;5034510;28;20062;-86
2021/05/30 04:35:49;;;;;;;15.38;10.48;;;;;;;7.04;88.39;102194.56;5056324;28;20049;-86
2021/05/30 04:38:18;;;;;;;18.67;10.00;;;;;;;7.09;88.26;102198.19;5056235;28;20582;-86
2021/05/30 04:40:48;;;;;;;17.10;11.07;;;;;;;7.15;88.30;102197.53;5050658;28;20048;-86
2021/05/30 04:43:15;;;;;;;12.07;9.27;;;;;;;7.18;88.29;102198.47;5042207;28;20135;-86
2021/05/30 04:45:41;;;;;;;19.08;11.65;;;;;;;7.23;88.07;102201.22;5035250;28;20047;-85
2021/05/30 04:48:08;;;;;;;17.92;11.52;;;;;;;7.30;88.01;102192.78;5070515;28;20072;-86
2021/05/30 04:50:38;;;;;;;13.93;9.85;;;;;;;7.36;87.77;102205.09;5051788;28;20158;-86
2021/05/30 04:53:05;;;;;;;17.52;10.27;;;;;;;7.41;87.89;102209.59;5069485;28;20049;-85
2021/05/30 04:55:32;;;;;;;13.93;9.23;;;;;;;7.46;87.71;102209.72;5038161;28;20501;-86
2021/05/30 04:57:59;;;;;;;15.05;9.95;;;;;;;7.50;87.55;102215.91;5038094;28;20063;-86
2021/05/30 05:00:33;;;;;;;16.30;10.07;;;;;;;7.52;87.41;102215.13;5041222;28;20423;-86
2021/05/30 05:03:02;;;;;;;14.70;10.13;;;;;;;7.57;87.54;102205.72;5071830;28;20036;-86
2021/05/30 05:05:28;;;;;;;18.33;10.70;;;;;;;7.67;87.66;102213.78;5070196;28;20056;-86
2021/05/30 05:08:00;;;;;;;16.65;11.05;;;;;;;7.73;87.05;102208.72;5039758;28;20059;-86
2021/05/30 05:10:27;;;;;;;16.10;9.73;;;;;;;7.77;87.02;102208.88;5035730;28;20448;-86
2021/05/30 05:12:53;;;;;;;17.58;11.50;;;;;;;7.84;86.72;102209.03;5071989;28;20056;-86
2021/05/30 05:15:21;;;;;;;14.13;8.70;;;;;;;7.88;86.59;102209.16;5019980;28;20515;-86
2021/05/30 05:17:48;;;;;;;17.52;9.85;;;;;;;7.94;86.76;102205.84;5018179;28;20071;-86
2021/05/30 05:20:15;;;;;;;11.77;9.50;;;;;;;8.01;86.60;102204.28;5038245;28;20555;-86
2021/05/30 05:22:41;;;;;;;18.40;11.63;;;;;;;8.07;86.36;102200.09;5019332;28;20573;-86
2021/05/30 05:25:12;;;;;;;14.30;10.05;;;;;;;8.15;86.24;102202.91;5027324;28;20059;-86
2021/05/30 05:27:42;;;;;;;15.50;10.32;;;;;;;8.20;86.32;102198.69;5039239;28;20696;-86
2021/05/30 05:30:12;;;;;;;19.23;11.25;;;;;;;8.26;85.63;102204.06;5034702;28;20055;-85
2021/05/30 05:32:39;;;;;;;17.60;11.82;;;;;;;8.29;85.73;102198.03;5057238;28;20048;-86
2021/05/30 05:35:09;;;;;;;14.80;11.15;;;;;;;8.31;85.48;102198.09;5039207;28;20127;-86
2021/05/30 05:37:36;;;;;;;18.95;13.10;;;;;;;8.35;85.62;102205.16;5045959;28;20052;-86
2021/05/30 05:40:03;;;;;;;19.58;11.63;;;;;;;8.38;85.17;102205.22;5040622;28;20044;-85
2021/05/30 05:42:29;;;;;;;15.10;10.35;;;;;;;8.38;85.39;102198.28;5036971;28;20484;-86
2021/05/30 05:44:55;;;;;;;17.67;12.82;;;;;;;8.42;84.91;102200.13;5021832;28;20624;-86
2021/05/30 05:47:25;;;;;;;16.38;11.20;;;;;;;8.46;85.08;102200.22;5039717;28;20057;-86
2021/05/30 05:49:55;;;;;;;15.90;11.10;;;;;;;8.49;84.83;102198.59;5024634;28;20475;-86
2021/05/30 05:52:23;;;;;;;20.60;10.00;;;;;;;8.53;84.68;102195.19;5025459;28;20203;-86
2021/05/30 05:54:51;;;;;;;15.88;10.55;;;;;;;8.58;84.80;102198.81;5035588;28;20900;-86
2021/05/30 05:57:18;;;;;;;16.00;10.30;;;;;;;8.65;84.75;102197.22;5023654;28;20055;-86
2021/05/30 05:59:46;;;;;;;15.13;10.93;;;;;;;8.72;84.52;102193.03;5037076;28;22932;-86
2021/05/30 06:02:16;;;;;;;20.23;10.45;;;;;;;8.79;84.43;102202.78;5052672;28;20135;-86
2021/05/30 06:04:43;;;;;;;19.50;11.75;;;;;;;8.85;84.24;102186.34;5024718;28;20122;-85
2021/05/30 06:07:12;;;;;;;20.42;10.85;;;;;;;8.93;84.13;102192.66;5033546;28;21099;-86
2021/05/30 06:09:38;;;;;;;18.50;11.70;;;;;;;9.01;83.79;102192.78;5038357;28;20041;-86
2021/05/30 06:12:08;;;;;;;20.27;13.57;;;;;;;9.08;83.34;102195.59;5051474;28;20079;-85
2021/05/30 06:14:36;;;;;;;13.10;9.52;;;;;;;9.14;83.33;102183.50;5017248;28;20506;-85
2021/05/30 06:17:05;;;;;;;18.85;10.88;;;;;;;9.21;83.31;102195.88;5018478;28;20159;-86
2021/05/30 06:19:33;;;;;;;18.80;11.10;;;;;;;9.26;82.93;102189.00;5000570;28;20044;-86
2021/05/30 06:22:00;;;;;;;16.92;10.90;;;;;;;9.35;82.88;102193.56;5021739;28;20045;-85
2021/05/30 06:24:27;;;;;;;18.67;12.10;;;;;;;9.43;82.80;102189.34;4999969;28;20295;-85
2021/05/30 06:27:01;;;;;;;19.40;10.65;;;;;;;9.45;82.57;102198.09;5006014;28;20052;-84
2021/05/30 06:29:33;;;;;;;16.60;10.68;;;;;;;9.56;81.76;102196.59;5026348;28;20037;-85
2021/05/30 06:32:00;;;;;;;14.05;10.68;;;;;;;9.66;81.80;102186.31;5020309;28;20140;-85
2021/05/30 06:34:40;;;;;;;;;;;;;;;;;;;;;
2021/05/30 06:37:10;;;;;;;16.33;10.30;;;;;;;9.86;81.10;102187.56;5029393;28;20037;-84
2021/05/30 06:39:37;;;;;;;16.30;10.02;;;;;;;9.96;80.84;102179.91;5004955;28;20053;-85
2021/05/30 06:42:06;;;;;;;14.88;9.85;;;;;;;10.04;80.51;102187.03;5019315;28;20063;-85
2021/05/30 06:44:35;;;;;;;14.18;9.85;;;;;;;10.12;80.47;102179.31;5006676;28;20070;-85
2021/05/30 06:47:05;;;;;;;20.20;10.88;;;;;;;10.21;79.63;102184.72;5020227;28;21050;-85
2021/05/30 06:49:34;;;;;;;14.43;9.98;;;;;;;10.25;79.49;102181.28;5018464;28;20111;-85
2021/05/30 06:52:00;;;;;;;14.02;9.50;;;;;;;10.32;79.31;102181.41;5022355;28;20045;-85
2021/05/30 06:54:26;;;;;;;13.60;8.98;;;;;;;10.40;78.96;102183.34;5021642;28;20045;-86
2021/05/30 06:56:54;;;;;;;12.57;8.52;;;;;;;10.49;78.69;102179.09;5001882;28;20064;-85
2021/05/30 06:59:23;;;;;;;13.20;8.88;;;;;;;10.57;78.34;102178.38;5019545;28;20826;-85
2021/05/30 07:01:52;;;;;;;19.15;9.32;;;;;;;10.71;78.16;102181.16;5004824;28;20072;-85
2021/05/30 07:04:21;;;;;;;10.50;7.82;;;;;;;10.85;77.56;102170.03;5009602;28;20053;-85
2021/05/30 07:06:48;;;;;;;10.77;8.48;;;;;;;10.98;77.10;102177.19;5004872;28;20088;-85
2021/05/30 07:09:17;;;;;;;12.43;8.48;;;;;;;11.13;76.68;102180.88;5024654;28;20492;-85
2021/05/30 07:11:44;;;;;;;15.70;9.15;;;;;;;11.27;75.84;102173.22;5037436;28;20131;-84
2021/05/30 07:14:11;;;;;;;18.15;9.30;;;;;;;11.36;75.19;102176.81;5048029;28;20056;-84
2021/05/30 07:16:37;;;;;;;13.50;8.13;;;;;;;11.52;74.78;102171.75;5059032;28;20542;-84
2021/05/30 07:19:04;;;;;;;15.13;9.80;;;;;;;11.77;74.72;102172.91;5054120;28;20067;-85
2021/05/30 07:21:33;;;;;;;13.77;9.05;;;;;;;12.28;73.55;102169.91;5039134;28;20052;-85
2021/05/30 07:24:09;;;;;;;;;;;;;;;;;;;;;
2021/05/30 07:26:40;;;;;;;13.20;7.53;;;;;;;13.84;69.28;102173.38;5037046;28;20135;-85
2021/05/30 07:29:09;;;;;;;10.45;6.97;;;;;;;14.61;67.27;102176.00;5056206;28;20090;-85
2021/05/30 07:31:36;;;;;;;14.88;7.93;;;;;;;15.31;64.73;102165.31;5050691;28;20599;-85
2021/05/30 07:34:02;;;;;;;9.23;6.45;;;;;;;15.81;62.61;102161.56;5056104;28;20581;-85
2021/05/30 07:36:29;;;;;;;8.65;6.72;;;;;;;16.32;60.73;102170.84;5056085;28;20036;-85
2021/05/30 07:38:57;;;;;;;6.32;5.78;;;;;;;16.79;59.22;102161.59;5052065;28;20936;-85
2021/05/30 07:41:24;;;;;;;12.07;7.00;;;;;;;17.19;57.26;102158.50;5044194;28;20044;-86
2021/05/30 07:43:54;;;;;;;8.25;6.50;;;;;;;17.65;55.92;102157.00;5053592;28;20059;-86
2021/05/30 07:46:22;;;;;;;8.00;7.20;;;;;;;18.11;54.22;102166.03;5056715;28;20091;-86
2021/05/30 07:48:52;;;;;;;8.63;6.72;;;;;;;18.51;53.06;102162.72;5037094;28;20607;-85
2021/05/30 07:51:18;;;;;;;8.88;7.10;;;;;;;18.94;51.95;102150.44;5068584;28;20050;-86
2021/05/30 07:53:45;;;;;;;8.93;7.97;;;;;;;19.37;50.73;102153.09;5040754;28;20736;-86
2021/05/30 07:56:12;;;;;;;8.57;6.75;;;;;;;19.74;49.42;102146.97;5052353;28;20049;-86
2021/05/30 07:58:40;;;;;;;10.70;7.10;;;;;;;20.14;48.29;102153.97;5040040;28;20055;-86
2021/05/30 08:01:08;;;;;;;9.60;6.72;;;;;;;20.46;46.80;102150.47;5038123;28;20591;-86
2021/05/30 08:03:38;;;;;;;7.13;5.93;;;;;;;20.85;45.94;102145.94;5037628;28;20048;-86
2021/05/30 08:06:05;;;;;;;9.52;6.25;;;;;;;21.20;44.79;102152.91;5056337;28;20044;-86
2021/05/30 08:08:32;;;;;;;7.10;5.97;;;;;;;21.54;43.44;102143.00;5044756;28;20040;-87
2021/05/30 08:11:09;;;;;;;8.18;5.25;;;;;;;21.59;42.18;102151.75;5059516;28;20051;-85
2021/05/30 08:13:36;;;;;;;7.88;5.78;;;;;;;21.68;41.55;102150.59;5056547;28;20079;-85
2021/05/30 08:16:05;;;;;;;8.93;5.68;;;;;;;21.65;41.22;102143.56;5039172;28;20044;-85
2021/05/30 08:18:34;;;;;;;5.78;5.03;;;;;;;21.87;40.37;102148.22;5074168;28;20060;-86
2021/05/30 08:21:01;;;;;;;5.05;4.60;;;;;;;22.24;39.64;102149.63;5056017;28;20490;-83
2021/05/30 08:23:28;;;;;;;8.32;6.05;;;;;;;22.78;38.41;102147.78;5043784;28;20559;-85
2021/05/30 08:25:56;;;;;;;6.78;5.20;;;;;;;23.33;37.28;102150.19;5057637;28;20048;-84
2021/05/30 08:28:25;;;;;;;5.38;4.88;;;;;;;23.81;36.70;102142.94;5038559;28;20045;-85
2021/05/30 08:30:51;;;;;;;7.07;6.22;;;;;;;24.33;35.96;102150.59;5067524;28;20044;-84
2021/05/30 08:33:18;;;;;;;5.68;5.03;;;;;;;24.84;35.39;102144.84;5050352;28;21498;-85
2021/05/30 08:35:44;;;;;;;6.22;5.63;;;;;;;25.25;34.23;102145.59;5053144;28;20044;-84
2021/05/30 08:38:10;;;;;;;7.25;4.72;;;;;;;25.55;33.63;102142.41;5054836;28;20111;-84
2021/05/30 08:40:37;;;;;;;7.40;5.68;;;;;;;25.92;33.13;102137.91;5032701;28;20060;-85
2021/05/30 08:43:06;;;;;;;5.28;4.78;;;;;;;26.41;32.45;102139.03;5037578;28;20110;-85
2021/05/30 08:45:32;;;;;;;6.13;5.50;;;;;;;26.75;31.70;102137.25;5035713;28;20052;-85
2021/05/30 08:47:58;;;;;;;6.18;5.25;;;;;;;26.85;31.39;102143.03;5056182;28;20050;-85
2021/05/30 08:50:26;;;;;;;4.88;4.43;;;;;;;27.35;30.93;102135.78;5053483;28;20131;-85
2021/05/30 08:52:54;;;;;;;8.55;5.38;;;;;;;27.79;29.84;102137.75;5033876;28;20432;-85
2021/05/30 08:55:20;;;;;;;5.75;5.18;;;;;;;27.91;29.30;102138.84;5057360;28;20789;-84
2021/05/30 08:57:47;;;;;;;7.03;4.85;;;;;;;27.40;29.59;102137.28;5052789;28;20037;-84
2021/05/30 09:00:23;;;;;;;5.43;4.93;;;;;;;27.23;29.90;102137.34;5052875;28;20048;-84
2021/05/30 09:03:16;;;;;;;6.22;4.63;;;;;;;27.49;29.89;102135.88;5054675;28;20109;-85
2021/05/30 09:05:44;;;;;;;;;;;;;;;27.64;29.66;102134.16;5024583;28;20163;-85
2021/05/30 09:08:31;;;;;;;5.78;5.18;;;;;;;27.84;29.02;102134.81;5042373;28;19924;-85
2021/05/30 09:11:07;;;;;;;5.10;4.00;;;;;;;28.23;29.32;102131.56;5039863;28;20048;-85
2021/05/30 09:13:39;;;;;;;5.47;4.43;;;;;;;28.71;27.99;102122.44;5058769;28;20056;-85
2021/05/30 09:16:09;;;;;;;5.18;4.68;;;;;;;29.26;27.64;102131.50;5056721;28;20055;-87
2021/05/30 09:18:46;;;;;;;6.20;4.57;;;;;;;29.71;27.04;102133.97;5040944;28;20041;-87
2021/05/30 09:21:14;;;;;;;7.78;4.10;;;;;;;30.26;26.30;102124.00;5058536;28;20056;-87
2021/05/30 09:23:44;;;;;;;4.70;4.25;;;;;;;30.92;25.54;102134.66;5040412;28;20053;-86
2021/05/30 09:26:14;;;;;;;5.82;3.72;;;;;;;31.34;24.96;102129.84;5043605;28;20037;-85
2021/05/30 09:29:03;;;;;;;4.50;4.18;;;;;;;31.46;24.68;102119.94;5056937;28;20075;-86
2021/05/30 09:31:33;;;;;;;4.95;4.57;;;;;;;31.95;24.23;102130.75;5058795;28;20075;-85
2021/05/30 09:34:00;;;;;;;5.78;4.63;;;;;;;32.10;23.85;102117.88;5059531;28;20056;-84
2021/05/30 09:36:31;;;;;;;5.05;4.57;;;;;;;31.55;24.12;102121.09;5036510;28;20040;-85
2021/05/30 09:39:06;;;;;;;5.97;4.03;;;;;;;31.44;24.38;102124.59;5042273;28;20328;-85
2021/05/30 09:41:37;;;;;;;6.32;4.55;;;;;;;31.84;23.72;102129.72;5054975;28;20049;-84
2021/05/30 09:44:04;;;;;;;5.00;4.07;;;;;;;31.93;23.60;102117.34;5057928;28;20048;-86
2021/05/30 09:46:35;;;;;;;5.32;4.10;;;;;;;32.07;23.29;102127.09;5047749;28;20037;-84
2021/05/30 09:49:03;;;;;;;5.75;5.25;;;;;;;32.30;23.14;102121.75;5057396;28;20106;-85
2021/05/30 09:51:44;;;;;;;6.80;5.32;;;;;;;32.09;23.00;102126.97;5059674;28;20064;-85
2021/05/30 09:54:17;;;;;;;5.07;4.68;;;;;;;32.35;22.41;102129.53;5040335;28;20513;-85
2021/05/30 09:56:52;;;;;;;4.43;4.03;;;;;;;32.56;22.57;102121.53;5059138;28;20063;-86
2021/05/30 09:59:24;;;;;;;7.68;4.57;;;;;;;32.61;21.93;102117.47;5038078;28;20044;-85
2021/05/30 10:02:08;;;;;;;4.75;4.30;;;;;;;32.87;21.69;102121.78;5051272;28;20517;-86
2021/05/30 10:04:37;;;;;;;4.22;3.95;;;;;;;33.23;21.21;102127.91;5068440;28;20562;-85
2021/05/30 10:07:06;;;;;;;4.07;3.72;;;;;;;33.23;21.41;102125.19;5050846;28;20051;-84
2021/05/30 10:09:33;;;;;;;4.13;3.72;;;;;;;32.47;21.78;102115.00;5045147;28;20048;-85
2021/05/30 10:12:03;;;;;;;3.60;3.28;;;;;;;32.33;21.97;102122.38;5057824;28;20291;-85
2021/05/30 10:14:37;;;;;;;6.05;4.00;;;;;;;32.94;21.71;102117.63;5057220;28;20048;-85
2021/05/30 10:17:07;;;;;;;5.15;4.25;;;;;;;33.59;20.75;102117.72;5030517;28;20045;-85
2021/05/30 10:19:45;;;;;;;4.60;4.18;;;;;;;33.45;20.72;102113.44;5020521;28;20044;-85
2021/05/30 10:22:23;;;;;;;4.30;3.50;;;;;;;33.79;20.54;102114.22;5042661;28;20041;-85
2021/05/30 10:24:55;;;;;;;4.15;3.60;;;;;;;34.37;19.72;102109.31;5039386;28;20053;-85
2021/05/30 10:27:24;;;;;;;3.95;3.50;;;;;;;34.85;19.85;102114.13;5040687;28;20037;-85
2021/05/30 10:30:13;;;;;;;5.00;3.67;;;;;;;35.35;18.95;102113.25;5038662;28;20135;-85
2021/05/30 10:33:23;;;;;;;4.47;4.07;;;;;;;35.91;18.43;102110.84;5023639;28;20049;-85
2021/05/30 10:35:56;;;;;;;3.60;3.40;;;;;;;36.38;17.89;102116.31;5013919;28;20522;-85
2021/05/30 10:38:54;;;;;;;4.45;3.53;;;;;;;36.23;18.00;102109.59;5006826;28;20103;-85
2021/05/30 10:41:24;;;;;;;3.75;3.50;;;;;;;36.45;17.83;102104.84;5043426;28;20113;-84
2021/05/30 10:43:55;;;;;;;4.32;3.50;;;;;;;36.40;17.23;102105.25;5025040;28;20106;-85
2021/05/30 10:46:24;;;;;;;3.42;3.10;;;;;;;36.39;17.44;102104.41;5026438;28;20053;-85
2021/05/30 10:49:08;;;;;;;6.65;3.28;;;;;;;36.39;17.29;102115.31;5038264;28;20049;-84
2021/05/30 10:51:47;;;;;;;2.95;2.75;;;;;;;36.12;17.51;102109.78;5041310;28;20136;-83
2021/05/30 10:54:14;;;;;;;6.28;3.25;;;;;;;35.61;17.48;102099.06;5020914;28;20120;-86
2021/05/30 10:56:57;;;;;;;3.55;2.92;;;;;;;35.13;17.64;102106.16;5023353;28;20484;-85
2021/05/30 10:59:27;;;;;;;5.80;4.63;;;;;;;34.75;18.33;102105.03;5018052;28;20160;-85
2021/05/30 11:01:56;;;;;;;3.55;3.35;;;;;;;35.20;17.98;102104.63;5033543;28;20049;-85
2021/05/30 11:04:25;;;;;;;3.70;3.10;;;;;;;35.86;17.58;102099.50;5022254;28;20049;-85
2021/05/30 11:07:04;;;;;;;3.65;2.35;;;;;;;36.55;16.09;102094.75;5040594;28;20045;-85
2021/05/30 11:10:06;;;;;;;2.10;1.90;;;;;;;36.94;15.84;102096.44;5036052;28;20052;-85
2021/05/30 11:12:51;;;;;;;2.47;2.30;;;;;;;37.52;15.11;102097.88;5031223;28;20116;-84
2021/05/30 11:15:18;;;;;;;2.83;2.40;;;;;;;37.63;15.11;102094.91;5040717;28;20045;-86
2021/05/30 11:17:57;;;;;;;2.28;2.17;;;;;;;37.92;15.10;102084.75;5065013;28;20422;-85
2021/05/30 11:20:36;;;;;;;3.42;3.13;;;;;;;38.00;14.81;102087.53;5036468;28;20048;-86
2021/05/30 11:23:05;;;;;;;3.00;2.70;;;;;;;37.88;14.98;102084.22;5045084;28;20063;-85
2021/05/30 11:25:41;;;;;;;3.13;2.42;;;;;;;38.15;14.84;102079.59;5044409;28;20040;-85
2021/05/30 11:28:14;;;;;;;3.15;2.95;;;;;;;38.50;14.67;102080.47;5055433;28;20159;-85
2021/05/30 11:31:07;;;;;;;2.88;2.65;;;;;;;38.42;14.59;102069.50;5017176;28;20063;-85
2021/05/30 11:33:46;;;;;;;2.28;2.10;;;;;;;38.37;14.69;102067.25;5052889;28;20067;-86
2021/05/30 11:36:15;;;;;;;4.35;3.08;;;;;;;38.62;14.59;102070.97;5039681;28;20052;-85
2021/05/30 11:38:51;;;;;;;3.15;2.42;;;;;;;39.05;14.26;102066.31;5055960;28;20050;-85
2021/05/30 11:41:49;;;;;;;;;;;;;;;;;;;;;